createdAt,value
2022-11-09T00:00:30.142Z,1000.83
2022-11-09T00:01:30.147Z,1000.81
2022-11-09T00:02:30.095Z,1000.82
2022-11-09T00:03:30.074Z,1000.86
2022-11-09T00:04:30.050Z,1000.78
2022-11-09T00:05:30.039Z,1000.81
2022-11-09T00:06:30.067Z,1000.79
2022-11-09T00:07:29.991Z,1000.75
2022-11-09T00:08:29.987Z,1000.75
2022-11-09T00:09:29.980Z,1000.75
2022-11-09T00:10:29.922Z,1000.71
2022-11-09T00:11:29.891Z,1000.80
2022-11-09T00:12:29.868Z,1000.76
2022-11-09T00:13:29.850Z,1000.75
2022-11-09T00:14:29.836Z,1000.79
2022-11-09T00:15:29.802Z,1000.79
2022-11-09T00:16:29.782Z,1000.80
2022-11-09T00:17:29.756Z,1000.78
2022-11-09T00:18:29.736Z,1000.77
2022-11-09T00:19:29.713Z,1000.73
2022-11-09T00:20:29.691Z,1000.77
2022-11-09T00:21:29.666Z,1000.73
2022-11-09T00:22:29.647Z,1000.81
2022-11-09T00:23:29.630Z,1000.76
2022-11-09T00:24:29.622Z,1000.77
2022-11-09T00:25:29.580Z,1000.73
2022-11-09T00:26:29.559Z,1000.68
2022-11-09T00:27:29.536Z,1000.70
2022-11-09T00:28:29.515Z,1000.72
2022-11-09T00:29:29.486Z,1000.72
2022-11-09T00:30:29.463Z,1000.67
2022-11-09T00:31:29.440Z,1000.68
2022-11-09T00:32:29.419Z,1000.75
2022-11-09T00:33:29.393Z,1000.68
2022-11-09T00:34:29.378Z,1000.71
2022-11-09T00:35:29.346Z,1000.69
2022-11-09T00:36:29.332Z,1000.65
2022-11-09T00:37:29.410Z,1000.67
2022-11-09T00:38:29.280Z,1000.61
2022-11-09T00:39:29.260Z,1000.66
2022-11-09T00:40:29.258Z,1000.58
2022-11-09T00:41:29.213Z,1000.59
2022-11-09T00:42:29.204Z,1000.63
2022-11-09T00:43:29.162Z,1000.68
2022-11-09T00:44:29.150Z,1000.71
2022-11-09T00:45:29.122Z,1000.73
2022-11-09T00:46:29.107Z,1000.66
2022-11-09T00:47:29.075Z,1000.63
2022-11-09T00:48:29.058Z,1000.64
2022-11-09T00:49:29.029Z,1000.69
2022-11-09T00:50:29.016Z,1000.69
2022-11-09T00:51:28.988Z,1000.70
2022-11-09T00:52:28.968Z,1000.67
2022-11-09T00:53:28.942Z,1000.67
2022-11-09T00:54:28.931Z,1000.70
2022-11-09T00:55:28.905Z,1000.68
2022-11-09T00:56:28.894Z,1000.64
2022-11-09T00:57:28.847Z,1000.67
2022-11-09T00:58:28.838Z,1000.63
2022-11-09T00:59:28.803Z,1000.60
2022-11-09T01:00:28.788Z,1000.62
2022-11-09T01:01:28.847Z,1000.62
2022-11-09T01:02:28.738Z,1000.63
2022-11-09T01:03:28.711Z,1000.62
2022-11-09T01:04:28.692Z,1000.67
2022-11-09T01:05:28.667Z,1000.68
2022-11-09T01:06:28.729Z,1000.66
2022-11-09T01:07:28.633Z,1000.71
2022-11-09T01:08:28.603Z,1000.68
2022-11-09T01:09:28.583Z,1000.73
2022-11-09T01:10:28.561Z,1000.71
2022-11-09T01:11:28.535Z,1000.74
2022-11-09T01:12:28.550Z,1000.70
2022-11-09T01:13:28.488Z,1000.71
2022-11-09T01:14:28.469Z,1000.69
2022-11-09T01:15:28.445Z,1000.72
2022-11-09T01:16:28.425Z,1000.74
2022-11-09T01:17:28.404Z,1000.81
2022-11-09T01:18:28.382Z,1000.78
2022-11-09T01:19:28.356Z,1000.80
2022-11-09T01:20:28.336Z,1000.77
2022-11-09T01:21:28.314Z,1000.77
2022-11-09T01:22:28.287Z,1000.80
2022-11-09T01:23:28.267Z,1000.74
2022-11-09T01:24:28.243Z,1000.77
2022-11-09T01:25:28.220Z,1000.73
2022-11-09T01:26:28.197Z,1000.71
2022-11-09T01:27:28.175Z,1000.74
2022-11-09T01:28:28.175Z,1000.71
2022-11-09T01:29:28.134Z,1000.75
2022-11-09T01:30:28.119Z,1000.78
2022-11-09T01:31:28.088Z,1000.77
2022-11-09T01:32:28.063Z,1000.81
2022-11-09T01:33:28.036Z,1000.81
2022-11-09T01:34:28.014Z,1000.78
2022-11-09T01:35:27.995Z,1000.80
2022-11-09T01:36:27.974Z,1000.81
2022-11-09T01:37:27.956Z,1000.81
2022-11-09T01:38:27.925Z,1000.77
2022-11-09T01:39:27.902Z,1000.76
2022-11-09T01:40:27.884Z,1000.82
2022-11-09T01:41:27.860Z,1000.80
2022-11-09T01:42:27.836Z,1000.81
2022-11-09T01:43:27.818Z,1000.82
2022-11-09T01:44:27.866Z,1000.82
2022-11-09T01:45:27.772Z,1000.84
2022-11-09T01:46:27.744Z,1000.79
2022-11-09T01:47:27.720Z,1000.79
2022-11-09T01:48:27.701Z,1000.82
2022-11-09T01:49:27.676Z,1000.78
2022-11-09T01:50:27.653Z,1000.80
2022-11-09T01:51:27.631Z,1000.79
2022-11-09T01:52:27.606Z,1000.72
2022-11-09T01:53:27.586Z,1000.74
2022-11-09T01:54:27.562Z,1000.68
2022-11-09T01:55:27.543Z,1000.63
2022-11-09T01:56:27.516Z,1000.71
2022-11-09T01:57:27.492Z,1000.67
2022-11-09T01:58:27.472Z,1000.72
2022-11-09T01:59:27.454Z,1000.73
2022-11-09T02:00:27.447Z,1000.75
2022-11-09T02:01:27.481Z,1000.72
2022-11-09T02:02:27.381Z,1000.77
2022-11-09T02:03:27.360Z,1000.79
2022-11-09T02:04:27.342Z,1000.74
2022-11-09T02:05:27.318Z,1000.76
2022-11-09T02:06:27.375Z,1000.77
2022-11-09T02:07:27.269Z,1000.77
2022-11-09T02:08:27.257Z,1000.79
2022-11-09T02:09:27.227Z,1000.80
2022-11-09T02:10:27.202Z,1000.79
2022-11-09T02:11:27.180Z,1000.83
2022-11-09T02:12:27.158Z,1000.83
2022-11-09T02:13:27.131Z,1000.77
2022-11-09T02:14:27.106Z,1000.78
2022-11-09T02:15:27.086Z,1000.78
2022-11-09T02:16:27.079Z,1000.80
2022-11-09T02:17:27.038Z,1000.79
2022-11-09T02:18:27.017Z,1000.78
2022-11-09T02:19:26.999Z,1000.78
2022-11-09T02:20:26.972Z,1000.76
2022-11-09T02:21:26.949Z,1000.76
2022-11-09T02:22:26.925Z,1000.69
2022-11-09T02:23:26.906Z,1000.74
2022-11-09T02:24:26.892Z,1000.68
2022-11-09T02:25:26.862Z,1000.66
2022-11-09T02:26:26.831Z,1000.64
2022-11-09T02:27:26.819Z,1000.65
2022-11-09T02:28:26.790Z,1000.63
2022-11-09T02:29:26.768Z,1000.63
2022-11-09T02:30:26.744Z,1000.61
2022-11-09T02:31:26.725Z,1000.64
2022-11-09T02:32:26.721Z,1000.62
2022-11-09T02:33:26.671Z,1000.59
2022-11-09T02:34:26.650Z,1000.60
2022-11-09T02:35:26.634Z,1000.62
2022-11-09T02:36:26.604Z,1000.65
2022-11-09T02:37:26.585Z,1000.62
2022-11-09T02:38:26.571Z,1000.68
2022-11-09T02:39:26.537Z,1000.68
2022-11-09T02:40:26.520Z,1000.59
2022-11-09T02:41:26.497Z,1000.64
2022-11-09T02:42:26.471Z,1000.64
2022-11-09T02:43:26.447Z,1000.62
2022-11-09T02:44:26.420Z,1000.64
2022-11-09T02:45:26.404Z,1000.62
2022-11-09T02:46:26.413Z,1000.60
2022-11-09T02:47:26.355Z,1000.55
2022-11-09T02:48:26.350Z,1000.49
2022-11-09T02:49:26.307Z,1000.53
2022-11-09T02:50:26.286Z,1000.52
2022-11-09T02:51:26.260Z,1000.54
2022-11-09T02:52:26.244Z,1000.47
2022-11-09T02:53:26.218Z,1000.46
2022-11-09T02:54:26.198Z,1000.48
2022-11-09T02:55:26.179Z,1000.51
2022-11-09T02:56:26.154Z,1000.49
2022-11-09T02:57:26.132Z,1000.52
2022-11-09T02:58:26.105Z,1000.50
2022-11-09T02:59:26.084Z,1000.51
2022-11-09T03:00:26.058Z,1000.47
2022-11-09T03:01:26.093Z,1000.51
2022-11-09T03:02:26.011Z,1000.46
2022-11-09T03:03:25.992Z,1000.59
2022-11-09T03:04:26.018Z,1000.51
2022-11-09T03:05:25.943Z,1000.55
2022-11-09T03:06:25.914Z,1000.54
2022-11-09T03:07:25.894Z,1000.57
2022-11-09T03:08:25.870Z,1000.55
2022-11-09T03:09:25.851Z,1000.54
2022-11-09T03:10:25.832Z,1000.56
2022-11-09T03:11:25.808Z,1000.53
2022-11-09T03:12:25.777Z,1000.49
2022-11-09T03:13:25.767Z,1000.51
2022-11-09T03:14:25.734Z,1000.51
2022-11-09T03:15:25.712Z,1000.52
2022-11-09T03:16:25.691Z,1000.54
2022-11-09T03:17:25.669Z,1000.56
2022-11-09T03:18:25.646Z,1000.62
2022-11-09T03:19:25.619Z,1000.57
2022-11-09T03:20:25.613Z,1000.62
2022-11-09T03:21:25.575Z,1000.62
2022-11-09T03:22:25.550Z,1000.55
2022-11-09T03:23:25.527Z,1000.63
2022-11-09T03:24:25.509Z,1000.64
2022-11-09T03:25:25.484Z,1000.58
2022-11-09T03:26:25.456Z,1000.66
2022-11-09T03:27:25.439Z,1000.70
2022-11-09T03:28:25.413Z,1000.65
2022-11-09T03:29:25.390Z,1000.63
2022-11-09T03:30:25.365Z,1000.65
2022-11-09T03:31:25.344Z,1000.69
2022-11-09T03:32:25.325Z,1000.67
2022-11-09T03:33:25.298Z,1000.71
2022-11-09T03:34:25.275Z,1000.74
2022-11-09T03:35:25.254Z,1000.76
2022-11-09T03:36:25.265Z,1000.76
2022-11-09T03:37:25.332Z,1000.77
2022-11-09T03:38:25.197Z,1000.77
2022-11-09T03:39:25.162Z,1000.83
2022-11-09T03:40:25.137Z,1000.85
2022-11-09T03:41:25.119Z,1000.88
2022-11-09T03:42:25.092Z,1000.91
2022-11-09T03:43:25.070Z,1000.91
2022-11-09T03:44:25.050Z,1000.89
2022-11-09T03:45:25.025Z,1000.93
2022-11-09T03:46:25.004Z,1001.00
2022-11-09T03:47:24.978Z,1000.99
2022-11-09T03:48:24.954Z,1001.00
2022-11-09T03:49:24.941Z,1001.00
2022-11-09T03:50:24.916Z,1001.08
2022-11-09T03:51:24.891Z,1000.96
2022-11-09T03:52:24.884Z,1001.05
2022-11-09T03:53:24.846Z,1001.06
2022-11-09T03:54:24.817Z,1001.11
2022-11-09T03:55:24.796Z,1001.12
2022-11-09T03:56:24.779Z,1001.11
2022-11-09T03:57:24.750Z,1001.18
2022-11-09T03:58:24.725Z,1001.14
2022-11-09T03:59:24.709Z,1001.14
2022-11-09T04:00:24.684Z,1001.11
2022-11-09T04:01:24.730Z,1001.09
2022-11-09T04:02:24.637Z,1001.09
2022-11-09T04:03:24.613Z,1001.18
2022-11-09T04:04:24.595Z,1001.12
2022-11-09T04:05:24.566Z,1001.17
2022-11-09T04:06:24.543Z,1001.14
2022-11-09T04:07:24.523Z,1001.12
2022-11-09T04:08:24.518Z,1001.10
2022-11-09T04:09:24.475Z,1001.05
2022-11-09T04:10:24.452Z,1001.06
2022-11-09T04:11:24.431Z,1000.98
2022-11-09T04:12:24.409Z,1000.95
2022-11-09T04:13:24.382Z,1000.97
2022-11-09T04:14:24.361Z,1000.89
2022-11-09T04:15:24.344Z,1000.92
2022-11-09T04:16:24.315Z,1000.92
2022-11-09T04:17:24.292Z,1000.97
2022-11-09T04:18:24.267Z,1000.99
2022-11-09T04:19:24.247Z,1000.99
2022-11-09T04:20:24.221Z,1001.05
2022-11-09T04:21:24.255Z,1001.05
2022-11-09T04:22:24.179Z,1001.04
2022-11-09T04:23:24.153Z,1001.02
2022-11-09T04:24:24.197Z,1001.02
2022-11-09T04:25:24.107Z,1001.04
2022-11-09T04:26:24.083Z,1001.01
2022-11-09T04:27:24.068Z,1001.02
2022-11-09T04:28:24.038Z,1000.98
2022-11-09T04:29:24.015Z,1000.99
2022-11-09T04:30:23.992Z,1000.98
2022-11-09T04:31:27.901Z,1001.00
2022-11-09T04:32:23.945Z,1001.02
2022-11-09T04:33:23.927Z,1000.97
2022-11-09T04:34:23.905Z,1001.05
2022-11-09T04:35:23.877Z,1001.04
2022-11-09T04:36:23.858Z,1001.09
2022-11-09T04:37:23.835Z,1001.08
2022-11-09T04:38:23.808Z,1001.10
2022-11-09T04:39:23.786Z,1001.15
2022-11-09T04:40:23.780Z,1001.08
2022-11-09T04:41:23.736Z,1001.16
2022-11-09T04:42:23.720Z,1001.12
2022-11-09T04:43:23.704Z,1001.17
2022-11-09T04:44:23.673Z,1001.18
2022-11-09T04:45:23.652Z,1001.18
2022-11-09T04:46:23.622Z,1001.13
2022-11-09T04:47:23.601Z,1001.14
2022-11-09T04:48:23.579Z,1001.18
2022-11-09T04:49:23.560Z,1001.16
2022-11-09T04:50:23.532Z,1001.15
2022-11-09T04:51:23.514Z,1001.19
2022-11-09T04:52:23.492Z,1001.16
2022-11-09T04:53:23.882Z,1001.17
2022-11-09T04:54:23.441Z,1001.19
2022-11-09T04:55:23.429Z,1001.18
2022-11-09T04:56:23.408Z,1001.19
2022-11-09T04:57:23.376Z,1001.16
2022-11-09T04:58:25.103Z,1001.17
2022-11-09T04:59:23.329Z,1001.18
2022-11-09T05:00:23.300Z,1001.17
2022-11-09T05:01:23.285Z,1001.15
2022-11-09T05:02:23.256Z,1001.16
2022-11-09T05:03:23.552Z,1001.14
2022-11-09T05:04:23.216Z,1001.19
2022-11-09T05:05:23.200Z,1001.13
2022-11-09T05:06:23.163Z,1001.14
2022-11-09T05:07:23.144Z,1001.17
2022-11-09T05:08:23.128Z,1001.18
2022-11-09T05:09:23.101Z,1001.19
2022-11-09T05:10:23.072Z,1001.14
2022-11-09T05:11:23.052Z,1001.20
2022-11-09T05:12:23.048Z,1001.21
2022-11-09T05:13:23.215Z,1001.18
2022-11-09T05:14:22.984Z,1001.18
2022-11-09T05:15:22.967Z,1001.23
2022-11-09T05:16:22.935Z,1001.26
2022-11-09T05:17:22.910Z,1001.29
2022-11-09T05:18:22.889Z,1001.35
2022-11-09T05:19:22.866Z,1001.33
2022-11-09T05:20:22.838Z,1001.36
2022-11-09T05:21:22.821Z,1001.38
2022-11-09T05:22:22.797Z,1001.35
2022-11-09T05:23:23.241Z,1001.35
2022-11-09T05:24:22.750Z,1001.41
2022-11-09T05:25:22.728Z,1001.38
2022-11-09T05:26:22.702Z,1001.34
2022-11-09T05:27:22.683Z,1001.33
2022-11-09T05:28:22.743Z,1001.34
2022-11-09T05:29:22.642Z,1001.38
2022-11-09T05:30:22.612Z,1001.35
2022-11-09T05:31:22.594Z,1001.40
2022-11-09T05:32:22.571Z,1001.40
2022-11-09T05:33:23.067Z,1001.38
2022-11-09T05:34:22.527Z,1001.38
2022-11-09T05:35:22.505Z,1001.39
2022-11-09T05:36:22.480Z,1001.42
2022-11-09T05:37:22.457Z,1001.41
2022-11-09T05:38:22.430Z,1001.43
2022-11-09T05:39:22.409Z,1001.43
2022-11-09T05:40:22.395Z,1001.40
2022-11-09T05:41:22.360Z,1001.38
2022-11-09T05:42:22.348Z,1001.43
2022-11-09T05:43:22.542Z,1001.43
2022-11-09T05:44:22.311Z,1001.49
2022-11-09T05:45:41.438Z,1001.43
2022-11-09T05:46:22.243Z,1001.45
2022-11-09T05:47:22.226Z,1001.43
2022-11-09T05:48:22.203Z,1001.46
2022-11-09T05:49:22.179Z,1001.48
2022-11-09T05:50:22.154Z,1001.44
2022-11-09T05:51:22.135Z,1001.54
2022-11-09T05:52:22.117Z,1001.51
2022-11-09T05:53:22.342Z,1001.44
2022-11-09T05:54:22.065Z,1001.48
2022-11-09T05:55:22.038Z,1001.54
2022-11-09T05:56:22.021Z,1001.50
2022-11-09T05:57:21.994Z,1001.57
2022-11-09T05:58:21.972Z,1001.53
2022-11-09T05:59:21.949Z,1001.56
2022-11-09T06:00:21.995Z,1001.58
2022-11-09T06:01:21.903Z,1001.63
2022-11-09T06:02:21.943Z,1001.55
2022-11-09T06:03:22.297Z,1001.58
2022-11-09T06:04:21.836Z,1001.56
2022-11-09T06:05:21.807Z,1001.63
2022-11-09T06:06:21.789Z,1001.65
2022-11-09T06:07:21.761Z,1001.64
2022-11-09T06:08:21.739Z,1001.67
2022-11-09T06:09:21.718Z,1001.64
2022-11-09T06:10:21.693Z,1001.65
2022-11-09T06:11:24.264Z,1001.62
2022-11-09T06:12:21.647Z,1001.63
2022-11-09T06:13:22.016Z,1001.69
2022-11-09T06:14:21.607Z,1001.66
2022-11-09T06:15:21.582Z,1001.65
2022-11-09T06:16:21.578Z,1001.64
2022-11-09T06:17:21.531Z,1001.59
2022-11-09T06:18:21.514Z,1001.57
2022-11-09T06:19:21.486Z,1001.53
2022-11-09T06:20:21.468Z,1001.54
2022-11-09T06:21:21.440Z,1001.55
2022-11-09T06:22:21.423Z,1001.54
2022-11-09T06:23:21.797Z,1001.56
2022-11-09T06:24:21.376Z,1001.55
2022-11-09T06:25:21.347Z,1001.55
2022-11-09T06:26:21.330Z,1001.53
2022-11-09T06:27:21.306Z,1001.56
2022-11-09T06:28:21.282Z,1001.56
2022-11-09T06:29:21.258Z,1001.58
2022-11-09T06:30:21.232Z,1001.54
2022-11-09T06:31:21.210Z,1001.52
2022-11-09T06:32:21.269Z,1001.54
2022-11-09T06:33:21.600Z,1001.53
2022-11-09T06:34:21.145Z,1001.54
2022-11-09T06:35:21.115Z,1001.56
2022-11-09T06:36:21.096Z,1001.54
2022-11-09T06:37:21.077Z,1001.50
2022-11-09T06:38:21.049Z,1001.55
2022-11-09T06:39:21.025Z,1001.52
2022-11-09T06:40:21.006Z,1001.55
2022-11-09T06:41:20.977Z,1001.59
2022-11-09T06:42:21.004Z,1001.57
2022-11-09T06:43:21.371Z,1001.54
2022-11-09T06:44:20.920Z,1001.61
2022-11-09T06:45:20.889Z,1001.62
2022-11-09T06:46:20.862Z,1001.64
2022-11-09T06:47:20.843Z,1001.60
2022-11-09T06:48:20.840Z,1001.57
2022-11-09T06:49:20.794Z,1001.65
2022-11-09T06:50:20.777Z,1001.66
2022-11-09T06:51:20.750Z,1001.67
2022-11-09T06:52:20.730Z,1001.73
2022-11-09T06:53:20.997Z,1001.75
2022-11-09T06:54:20.684Z,1001.74
2022-11-09T06:55:20.659Z,1001.72
2022-11-09T06:56:20.637Z,1001.76
2022-11-09T06:57:20.614Z,1001.75
2022-11-09T06:58:20.590Z,1001.78
2022-11-09T06:59:20.564Z,1001.79
2022-11-09T07:00:20.544Z,1001.82
2022-11-09T07:01:20.564Z,1001.80
2022-11-09T07:02:20.500Z,1001.83
2022-11-09T07:03:20.784Z,1001.85
2022-11-09T07:04:20.471Z,1001.85
2022-11-09T07:05:20.426Z,1001.88
2022-11-09T07:06:20.408Z,1001.89
2022-11-09T07:07:24.905Z,1001.87
2022-11-09T07:08:20.364Z,1001.86
2022-11-09T07:09:20.334Z,1001.85
2022-11-09T07:10:20.311Z,1001.87
2022-11-09T07:11:20.284Z,1001.86
2022-11-09T07:12:20.271Z,1001.88
2022-11-09T07:13:20.658Z,1001.87
2022-11-09T07:14:20.218Z,1001.85
2022-11-09T07:15:20.192Z,1001.91
2022-11-09T07:16:20.173Z,1001.92
2022-11-09T07:17:20.146Z,1001.87
2022-11-09T07:18:20.131Z,1001.88
2022-11-09T07:19:20.115Z,1001.88
2022-11-09T07:20:20.124Z,1001.91
2022-11-09T07:21:20.059Z,1001.92
2022-11-09T07:22:20.039Z,1001.89
2022-11-09T07:23:20.364Z,1001.92
2022-11-09T07:24:19.988Z,1001.94
2022-11-09T07:25:19.960Z,1001.94
2022-11-09T07:26:19.944Z,1001.96
2022-11-09T07:27:24.828Z,1001.96
2022-11-09T07:28:19.900Z,1001.96
2022-11-09T07:29:19.867Z,1001.89
2022-11-09T07:30:19.862Z,1001.92
2022-11-09T07:31:19.823Z,1001.95
2022-11-09T07:32:19.804Z,1001.94
2022-11-09T07:33:19.783Z,1001.92
2022-11-09T07:34:19.758Z,1001.95
2022-11-09T07:35:19.728Z,1001.94
2022-11-09T07:36:21.603Z,1001.96
2022-11-09T07:37:19.683Z,1001.92
2022-11-09T07:38:19.668Z,1001.95
2022-11-09T07:39:19.637Z,1001.95
2022-11-09T07:40:19.612Z,1001.94
2022-11-09T07:41:19.595Z,1001.94
2022-11-09T07:42:19.568Z,1001.95
2022-11-09T07:43:19.985Z,1001.94
2022-11-09T07:44:19.526Z,1001.98
2022-11-09T07:45:19.504Z,1001.98
2022-11-09T07:46:19.472Z,1001.96
2022-11-09T07:47:19.446Z,1002.02
2022-11-09T07:48:19.425Z,1002.01
2022-11-09T07:49:19.411Z,1002.05
2022-11-09T07:50:19.394Z,1002.03
2022-11-09T07:51:19.357Z,1002.10
2022-11-09T07:52:19.444Z,1002.05
2022-11-09T07:53:19.763Z,1002.08
2022-11-09T07:54:19.291Z,1002.07
2022-11-09T07:55:19.265Z,1002.06
2022-11-09T07:56:19.250Z,1002.10
2022-11-09T07:57:19.220Z,1002.11
2022-11-09T07:58:19.201Z,1002.13
2022-11-09T07:59:19.171Z,1002.13
2022-11-09T08:00:23.426Z,1002.10
2022-11-09T08:01:19.124Z,1002.13
2022-11-09T08:02:19.161Z,1002.17
2022-11-09T08:03:19.449Z,1002.19
2022-11-09T08:04:19.055Z,1002.18
2022-11-09T08:05:19.028Z,1002.22
2022-11-09T08:06:19.187Z,1002.21
2022-11-09T08:07:18.984Z,1002.29
2022-11-09T08:08:18.981Z,1002.25
2022-11-09T08:09:18.939Z,1002.26
2022-11-09T08:10:18.917Z,1002.25
2022-11-09T08:11:18.892Z,1002.28
2022-11-09T08:12:18.870Z,1002.31
2022-11-09T08:13:19.220Z,1002.31
2022-11-09T08:14:18.829Z,1002.29
2022-11-09T08:15:18.803Z,1002.34
2022-11-09T08:16:18.781Z,1002.32
2022-11-09T08:17:18.749Z,1002.35
2022-11-09T08:18:19.070Z,1002.31
2022-11-09T08:19:18.707Z,1002.29
2022-11-09T08:20:18.686Z,1002.35
2022-11-09T08:21:18.656Z,1002.32
2022-11-09T08:22:18.634Z,1002.29
2022-11-09T08:23:18.614Z,1002.27
2022-11-09T08:24:18.611Z,1002.26
2022-11-09T08:25:18.569Z,1002.31
2022-11-09T08:26:18.543Z,1002.34
2022-11-09T08:27:18.514Z,1002.31
2022-11-09T08:28:19.026Z,1002.33
2022-11-09T08:29:18.482Z,1002.37
2022-11-09T08:30:18.459Z,1002.38
2022-11-09T08:31:18.439Z,1002.41
2022-11-09T08:32:18.409Z,1002.39
2022-11-09T08:33:18.375Z,1002.44
2022-11-09T08:34:18.358Z,1002.46
2022-11-09T08:35:18.338Z,1002.47
2022-11-09T08:36:18.309Z,1002.50
2022-11-09T08:37:18.288Z,1002.48
2022-11-09T08:38:18.699Z,1002.51
2022-11-09T08:39:18.239Z,1002.50
2022-11-09T08:40:18.237Z,1002.51
2022-11-09T08:41:18.195Z,1002.49
2022-11-09T08:42:18.172Z,1002.46
2022-11-09T08:43:18.145Z,1002.50
2022-11-09T08:44:18.126Z,1002.56
2022-11-09T08:45:18.098Z,1002.50
2022-11-09T08:46:18.081Z,1002.56
2022-11-09T08:47:18.057Z,1002.52
2022-11-09T08:48:18.531Z,1002.56
2022-11-09T08:49:18.007Z,1002.55
2022-11-09T08:50:17.989Z,1002.58
2022-11-09T08:51:17.961Z,1002.57
2022-11-09T08:52:17.935Z,1002.59
2022-11-09T08:53:17.913Z,1002.60
2022-11-09T08:54:17.899Z,1002.61
2022-11-09T08:55:17.873Z,1002.61
2022-11-09T08:56:17.867Z,1002.64
2022-11-09T08:57:17.821Z,1002.64
2022-11-09T08:58:18.189Z,1002.70
2022-11-09T08:59:17.779Z,1002.65
2022-11-09T09:00:17.755Z,1002.67
2022-11-09T09:01:18.028Z,1002.70
2022-11-09T09:02:17.762Z,1002.71
2022-11-09T09:03:17.687Z,1002.71
2022-11-09T09:04:17.658Z,1002.73
2022-11-09T09:05:17.643Z,1002.72
2022-11-09T09:06:17.623Z,1002.71
2022-11-09T09:07:17.651Z,1002.77
2022-11-09T09:08:17.819Z,1002.71
2022-11-09T09:09:17.548Z,1002.77
2022-11-09T09:10:17.524Z,1002.76
2022-11-09T09:11:17.501Z,1002.72
2022-11-09T09:12:17.507Z,1002.75
2022-11-09T09:13:17.449Z,1002.79
2022-11-09T09:14:17.428Z,1002.74
2022-11-09T09:15:17.405Z,1002.75
2022-11-09T09:16:17.390Z,1002.73
2022-11-09T09:17:17.359Z,1002.73
2022-11-09T09:18:17.414Z,1002.75
2022-11-09T09:19:17.314Z,1002.74
2022-11-09T09:20:17.290Z,1002.75
2022-11-09T09:21:17.266Z,1002.75
2022-11-09T09:22:17.251Z,1002.68
2022-11-09T09:23:17.224Z,1002.71
2022-11-09T09:24:17.201Z,1002.72
2022-11-09T09:25:17.176Z,1002.73
2022-11-09T09:26:17.149Z,1002.73
2022-11-09T09:27:17.122Z,1002.75
2022-11-09T09:28:17.400Z,1002.79
2022-11-09T09:29:17.084Z,1002.82
2022-11-09T09:30:17.064Z,1002.73
2022-11-09T09:31:18.502Z,1002.78
2022-11-09T09:32:17.016Z,1002.84
2022-11-09T09:33:16.988Z,1002.78
2022-11-09T09:34:16.978Z,1002.78
2022-11-09T09:35:16.942Z,1002.81
2022-11-09T09:36:16.922Z,1002.88
2022-11-09T09:37:16.898Z,1002.84
2022-11-09T09:38:16.873Z,1002.87
2022-11-09T09:39:16.847Z,1002.86
2022-11-09T09:40:16.828Z,1002.84
2022-11-09T09:41:16.804Z,1002.77
2022-11-09T09:42:16.780Z,1002.90
2022-11-09T09:43:16.757Z,1002.85
2022-11-09T09:44:16.754Z,1002.86
2022-11-09T09:45:16.712Z,1002.90
2022-11-09T09:46:16.692Z,1002.85
2022-11-09T09:47:16.664Z,1002.84
2022-11-09T09:48:16.739Z,1002.86
2022-11-09T09:49:16.614Z,1002.83
2022-11-09T09:50:16.627Z,1002.83
2022-11-09T09:51:16.571Z,1002.84
2022-11-09T09:52:16.547Z,1002.91
2022-11-09T09:53:25.218Z,1002.96
2022-11-09T09:54:16.505Z,1002.94
2022-11-09T09:55:16.485Z,1002.92
2022-11-09T09:56:16.456Z,1002.89
2022-11-09T09:57:16.433Z,1002.93
2022-11-09T09:58:16.417Z,1002.93
2022-11-09T09:59:16.382Z,1002.91
2022-11-09T10:00:16.384Z,1002.98
2022-11-09T10:01:16.341Z,1002.97
2022-11-09T10:02:16.313Z,1003.04
2022-11-09T10:03:16.297Z,1003.02
2022-11-09T10:04:16.346Z,1003.05
2022-11-09T10:05:16.252Z,1003.03
2022-11-09T10:06:16.230Z,1003.05
2022-11-09T10:07:16.303Z,1003.04
2022-11-09T10:08:16.181Z,1003.13
2022-11-09T10:09:16.156Z,1003.14
2022-11-09T10:10:16.127Z,1002.99
2022-11-09T10:11:16.108Z,1003.05
2022-11-09T10:12:16.084Z,1003.10
2022-11-09T10:13:16.072Z,1003.04
2022-11-09T10:14:16.040Z,1003.04
2022-11-09T10:15:16.023Z,1003.05
2022-11-09T10:16:16.016Z,1003.06
2022-11-09T10:17:15.973Z,1003.05
2022-11-09T10:18:15.953Z,1002.98
2022-11-09T10:19:15.930Z,1003.04
2022-11-09T10:20:15.903Z,1003.02
2022-11-09T10:21:15.880Z,1003.11
2022-11-09T10:22:15.860Z,1003.04
2022-11-09T10:23:15.835Z,1002.99
2022-11-09T10:24:15.809Z,1003.05
2022-11-09T10:25:32.228Z,1002.94
2022-11-09T10:26:16.111Z,1003.01
2022-11-09T10:27:15.744Z,1002.96
2022-11-09T10:28:15.721Z,1002.96
2022-11-09T10:29:17.053Z,1002.93
2022-11-09T10:30:15.670Z,1002.95
2022-11-09T10:31:15.657Z,1002.99
2022-11-09T10:32:15.649Z,1002.89
2022-11-09T10:33:15.600Z,1002.96
2022-11-09T10:34:15.575Z,1002.99
2022-11-09T10:35:15.559Z,1002.97
2022-11-09T10:36:15.538Z,1002.98
2022-11-09T10:37:15.515Z,1003.04
2022-11-09T10:38:15.497Z,1002.92
2022-11-09T10:39:15.475Z,1002.96
2022-11-09T10:40:15.447Z,1003.06
2022-11-09T10:41:15.427Z,1003.01
2022-11-09T10:42:15.398Z,1003.01
2022-11-09T10:43:15.376Z,1003.02
2022-11-09T10:44:17.514Z,1002.94
2022-11-09T10:45:15.328Z,1002.93
2022-11-09T10:46:15.302Z,1002.98
2022-11-09T10:47:15.280Z,1003.01
2022-11-09T10:48:15.277Z,1002.96
2022-11-09T10:49:15.232Z,1003.00
2022-11-09T10:50:15.213Z,1002.99
2022-11-09T10:51:15.194Z,1003.01
2022-11-09T10:52:15.168Z,1002.97
2022-11-09T10:53:15.148Z,1002.98
2022-11-09T10:54:15.122Z,1002.99
2022-11-09T10:55:15.102Z,1002.95
2022-11-09T10:56:20.211Z,1002.95
2022-11-09T10:57:15.053Z,1002.94
2022-11-09T10:58:15.028Z,1002.96
2022-11-09T10:59:15.009Z,1002.94
2022-11-09T11:00:14.985Z,1003.03
2022-11-09T11:01:15.042Z,1002.97
2022-11-09T11:02:15.007Z,1002.94
2022-11-09T11:03:14.917Z,1003.01
2022-11-09T11:04:15.057Z,1003.04
2022-11-09T11:05:14.874Z,1002.99
2022-11-09T11:06:14.846Z,1003.05
2022-11-09T11:07:19.738Z,1003.03
2022-11-09T11:08:14.803Z,1002.96
2022-11-09T11:09:14.782Z,1003.06
2022-11-09T11:10:14.760Z,1003.03
2022-11-09T11:11:32.640Z,1003.00
2022-11-09T11:12:14.710Z,1003.04
2022-11-09T11:13:14.687Z,1003.01
2022-11-09T11:14:18.462Z,1002.97
2022-11-09T11:15:14.648Z,1003.10
2022-11-09T11:16:14.815Z,1003.02
2022-11-09T11:17:14.599Z,1003.06
2022-11-09T11:18:14.629Z,1003.01
2022-11-09T11:19:14.555Z,1003.04
2022-11-09T11:20:14.573Z,1003.02
2022-11-09T11:21:18.411Z,1003.04
2022-11-09T11:22:14.494Z,1003.05
2022-11-09T11:23:14.508Z,1003.09
2022-11-09T11:24:14.442Z,1003.04
2022-11-09T11:25:14.421Z,1003.09
2022-11-09T11:26:14.394Z,1003.01
2022-11-09T11:27:14.387Z,1003.09
2022-11-09T11:28:14.347Z,1003.05
2022-11-09T11:29:14.324Z,1003.07
2022-11-09T11:30:14.303Z,1003.05
2022-11-09T11:31:14.276Z,1003.07
2022-11-09T11:32:14.259Z,1002.99
2022-11-09T11:33:14.342Z,1003.15
2022-11-09T11:34:26.579Z,1003.07
2022-11-09T11:35:14.197Z,1003.05
2022-11-09T11:36:14.191Z,1003.07
2022-11-09T11:37:14.144Z,1003.06
2022-11-09T11:38:14.123Z,1003.05
2022-11-09T11:39:14.101Z,1002.98
2022-11-09T11:40:14.088Z,1003.00
2022-11-09T11:41:14.057Z,1002.96
2022-11-09T11:42:14.033Z,1003.03
2022-11-09T11:43:14.062Z,1003.03
2022-11-09T11:44:14.013Z,1002.99
2022-11-09T11:45:38.854Z,1002.86
2022-11-09T11:46:13.939Z,1002.94
2022-11-09T11:47:13.922Z,1002.96
2022-11-09T11:48:13.895Z,1002.97
2022-11-09T11:49:13.874Z,1002.93
2022-11-09T11:50:13.856Z,1002.92
2022-11-09T11:51:13.828Z,1002.96
2022-11-09T11:52:13.823Z,1002.98
2022-11-09T11:53:13.897Z,1003.00
2022-11-09T11:54:13.762Z,1003.04
2022-11-09T11:55:13.738Z,1002.92
2022-11-09T11:56:13.719Z,1002.78
2022-11-09T11:57:13.693Z,1002.83
2022-11-09T11:58:13.681Z,1002.96
2022-11-09T11:59:13.650Z,1002.90
2022-11-09T12:00:13.625Z,1002.91
2022-11-09T12:01:13.601Z,1002.89
2022-11-09T12:02:13.623Z,1002.92
2022-11-09T12:03:13.557Z,1002.95
2022-11-09T12:04:13.537Z,1002.89
2022-11-09T12:05:13.515Z,1002.93